Time;durP1;ratioP1;P1;durP2;ratioP2;P2;SDS_P1;SDS_P2;PMS_P1;PMS_P2;Temp;Humidity;BMP_temperature;BMP_pressure;BME280_temperature;BME280_humidity;BME280_pressure;Samples;Min_cycle;Max_cycle;Signal;HPM_P1;HPM_P2
2022/05/11 00:00:33;;;;;;;;;;;;;;;17.29;50.65;100159.00;4424461;32;20023;-84
2022/05/11 00:03:00;;;;;;;;;;;;;;;17.14;50.98;100160.00;4416836;32;20050;-79
2022/05/11 00:05:27;;;;;;;;;;;;;;;17.08;51.35;100155.66;4416456;32;20015;-84
2022/05/11 00:07:53;;;;;;;;;;;;;;;16.94;51.81;100154.84;4416253;32;20085;-81
2022/05/11 00:10:20;;;;;;;;;;;;;;;17.09;51.44;100154.75;4416462;32;19978;-86
2022/05/11 00:13:19;;;;;;;;;;;;;;;16.98;51.63;100153.09;4149870;32;40399699;-82
2022/05/11 00:15:46;;;;;;;;;;;;;;;16.89;51.82;100159.25;4414662;32;19982;-78
2022/05/11 00:18:13;;;;;;;;;;;;;;;17.07;50.74;100153.94;4416131;32;19997;-81
2022/05/11 00:20:40;;;;;;;;;;;;;;;17.06;50.95;100152.16;4415935;32;20296;-83
2022/05/11 00:23:07;;;;;;;;;;;;;;;17.00;51.15;100153.94;4416603;32;20453;-82
2022/05/11 00:25:34;;;;;;;;;;;;;;;17.04;50.97;100164.41;4416260;32;20026;-78
2022/05/11 00:28:01;;;;;;;;;;;;;;;16.99;51.15;100155.69;4416275;32;20373;-83
2022/05/11 00:30:30;;;;;;;;;;;;;;;17.11;50.43;100155.63;4416852;32;19989;-86
2022/05/11 00:32:58;;;;;;;;;;;;;;;17.16;50.73;100153.84;4415572;32;20662;-81
2022/05/11 00:35:25;;;;;;;;;;;;;;;16.88;51.26;100157.47;4415497;32;19986;-82
2022/05/11 00:37:52;;;;;;;;;;;;;;;16.80;51.98;100148.81;4416375;32;20022;-78
2022/05/11 00:40:24;;;;;;;;;;;;;;;16.87;51.49;100150.53;3635030;32;30268109;-80
2022/05/11 00:42:51;;;;;;;;;;;;;;;16.70;52.50;100153.19;3177391;32;40380941;-78
2022/05/11 00:45:19;;;;;;;;;;;;;;;16.73;52.25;100154.03;4408451;32;19992;-78
2022/05/11 00:47:50;;;;;;;;;;;;;;;16.72;52.35;100152.31;4414984;32;19981;-80
2022/05/11 00:50:18;;;;;;;;;;;;;;;16.61;52.69;100159.31;4414312;32;19978;-78
2022/05/11 00:52:47;;;;;;;;;;;;;;;16.64;52.46;100153.19;4416600;32;20027;-78
2022/05/11 00:55:18;;;;;;;;;;;;;;;16.62;52.39;100161.03;4414956;32;19982;-78
2022/05/11 00:57:47;;;;;;;;;;;;;;;16.68;52.29;100149.69;4414731;32;19985;-84
2022/05/11 01:00:14;;;;;;;;;;;;;;;16.74;51.77;100150.53;4414858;32;20061;-83
2022/05/11 01:02:41;;;;;;;;;;;;;;;16.72;51.66;100149.69;4414323;32;20073;-79
2022/05/11 01:05:09;;;;;;;;;;;;;;;16.70;51.84;100150.56;4415100;32;19981;-78
2022/05/11 01:07:36;;;;;;;;;;;;;;;16.84;51.40;100145.31;4416017;32;20053;-78
2022/05/11 01:10:05;;;;;;;;;;;;;;;16.76;52.03;100149.72;4415251;32;20339;-79
2022/05/11 01:12:33;;;;;;;;;;;;;;;16.70;51.69;100147.97;4416585;32;20390;-83
2022/05/11 01:15:00;;;;;;;;;;;;;;;16.71;51.86;100154.91;4414603;32;20016;-83
2022/05/11 01:17:27;;;;;;;;;;;;;;;16.60;52.43;100152.34;4414465;32;19989;-82
2022/05/11 01:19:55;;;;;;;;;;;;;;;16.56;52.25;100155.84;4416133;32;20027;-86
2022/05/11 01:22:27;;;;;;;;;;;;;;;16.59;52.09;100161.06;4414834;32;19989;-80
2022/05/11 01:24:54;;;;;;;;;;;;;;;16.73;51.55;100151.44;4415183;32;19989;-80
2022/05/11 01:27:24;;;;;;;;;;;;;;;16.71;51.67;100147.94;4416837;32;20008;-78
2022/05/11 01:29:51;;;;;;;;;;;;;;;16.59;52.29;100153.22;4416110;32;20050;-79
2022/05/11 01:32:19;;;;;;;;;;;;;;;16.55;52.58;100148.87;4416476;32;19981;-78
2022/05/11 01:34:46;;;;;;;;;;;;;;;16.59;52.01;100150.62;4415376;32;20088;-83
2022/05/11 01:37:13;;;;;;;;;;;;;;;16.40;52.78;100159.34;4415124;32;20004;-79
2022/05/11 01:39:43;;;;;;;;;;;;;;;16.39;52.78;100158.50;4402155;32;20320;-80
2022/05/11 01:42:10;;;;;;;;;;;;;;;16.48;52.69;100153.25;4415827;32;20024;-78
2022/05/11 01:44:37;;;;;;;;;;;;;;;16.48;52.66;100162.84;4414947;32;20056;-82
2022/05/11 01:47:04;;;;;;;;;;;;;;;16.50;52.21;100155.87;4416417;32;20092;-81
2022/05/11 01:49:31;;;;;;;;;;;;;;;16.51;52.08;100152.37;4415680;32;19977;-83
2022/05/11 01:51:58;;;;;;;;;;;;;;;16.47;52.60;100156.75;4416694;32;20005;-79
2022/05/11 01:54:25;;;;;;;;;;;;;;;16.48;52.39;100153.25;4416063;32;19974;-82
2022/05/11 01:56:52;;;;;;;;;;;;;;;16.30;53.05;100158.50;4415940;32;19978;-79
2022/05/11 01:59:18;;;;;;;;;;;;;;;16.48;52.63;100157.59;4415957;32;19989;-81
2022/05/11 02:01:45;;;;;;;;;;;;;;;16.22;53.36;100161.16;4414396;32;20350;-82
2022/05/11 02:09:44;;;;;;;;;;;;;;;16.00;53.92;100154.22;4414999;32;20027;-78
2022/05/11 02:12:11;;;;;;;;;;;;;;;16.06;53.61;100149.00;4413982;32;19981;-78
2022/05/11 02:14:39;;;;;;;;;;;;;;;15.92;54.15;100150.72;4413397;32;19989;-83
2022/05/11 02:17:06;;;;;;;;;;;;;;;16.12;53.70;100150.72;4414594;32;20019;-78
2022/05/11 02:19:33;;;;;;;;;;;;;;;16.09;53.45;100154.22;4416006;32;20037;-81
2022/05/11 02:22:00;;;;;;;;;;;;;;;16.00;53.70;100149.88;4415817;32;20033;-78
2022/05/11 02:24:27;;;;;;;;;;;;;;;16.08;53.45;100142.03;4413884;32;19993;-78
2022/05/11 02:26:54;;;;;;;;;;;;;;;16.13;52.98;100150.72;4415934;32;20028;-78
2022/05/11 02:29:23;;;;;;;;;;;;;;;16.24;52.76;100143.75;4414188;32;20071;-79
2022/05/11 02:31:50;;;;;;;;;;;;;;;15.95;53.85;100143.78;4415390;32;19977;-78
2022/05/11 02:37:05;;;;;;;;;;;;;;;15.78;54.37;100153.34;4372556;32;19993;-78
2022/05/11 02:39:32;;;;;;;;;;;;;;;16.05;53.45;100147.28;4386793;32;19992;-81
2022/05/11 02:42:00;;;;;;;;;;;;;;;15.90;54.26;100147.28;4385496;32;19986;-78
2022/05/11 02:44:27;;;;;;;;;;;;;;;15.92;53.97;100145.50;4393885;32;20028;-81
2022/05/11 02:46:55;;;;;;;;;;;;;;;16.00;53.73;100143.78;4388721;32;20847;-80
2022/05/11 02:49:22;;;;;;;;;;;;;;;15.97;53.58;100144.66;4390251;32;20030;-81
2022/05/11 02:51:49;;;;;;;;;;;;;;;15.85;53.92;100146.41;4386119;32;19978;-80
2022/05/11 02:54:16;;;;;;;;;;;;;;;15.72;54.35;100146.41;4391373;32;20009;-81
2022/05/11 02:56:43;;;;;;;;;;;;;;;15.94;53.46;100143.78;4385536;32;20017;-83
2022/05/11 02:59:10;;;;;;;;;;;;;;;15.99;53.32;100142.06;4393449;32;20362;-80
2022/05/11 03:01:37;;;;;;;;;;;;;;;15.83;53.90;100140.31;4387242;32;19986;-77
2022/05/11 03:04:04;;;;;;;;;;;;;;;15.66;54.68;100142.88;4392805;32;20021;-82
2022/05/11 03:06:31;;;;;;;;;;;;;;;15.72;54.25;100143.78;4398215;32;20024;-81
2022/05/11 03:08:58;;;;;;;;;;;;;;;15.86;53.75;100140.28;4391351;32;20006;-82
2022/05/11 03:11:25;;;;;;;;;;;;;;;15.77;54.28;100144.66;4391400;32;20297;-78
2022/05/11 03:13:52;;;;;;;;;;;;;;;15.67;54.40;100155.97;4386603;32;19998;-79
2022/05/11 03:16:25;;;;;;;;;;;;;;;15.49;55.01;100150.72;4386685;32;20017;-78
2022/05/11 03:18:52;;;;;;;;;;;;;;;15.46;55.01;100140.28;4390200;32;19974;-83
2022/05/11 03:21:19;;;;;;;;;;;;;;;15.62;54.58;100149.84;4393184;32;19996;-85
2022/05/11 03:23:46;;;;;;;;;;;;;;;15.67;54.53;100150.75;4383744;32;20054;-82
2022/05/11 03:26:14;;;;;;;;;;;;;;;15.66;54.53;100148.97;4385065;32;20009;-79
2022/05/11 03:28:41;;;;;;;;;;;;;;;15.77;54.05;100147.28;4386689;32;20299;-79
2022/05/11 03:31:08;;;;;;;;;;;;;;;15.54;54.63;100154.22;4388924;32;20001;-79
2022/05/11 03:36:21;;;;;;;;;;;;;;;15.60;54.78;100159.41;4386831;32;20021;-83
2022/05/11 03:38:48;;;;;;;;;;;;;;;15.57;54.73;100159.41;4386993;32;19985;-85
2022/05/11 03:41:15;;;;;;;;;;;;;;;15.77;54.02;100162.94;4386109;32;20038;-81
2022/05/11 03:43:41;;;;;;;;;;;;;;;15.70;54.38;100160.34;4386672;32;19990;-79
2022/05/11 03:46:14;;;;;;;;;;;;;;;15.43;55.57;100162.00;4386528;32;20033;-78
2022/05/11 03:48:41;;;;;;;;;;;;;;;15.66;54.75;100169.84;4390756;32;20002;-80
2022/05/11 03:51:10;;;;;;;;;;;;;;;15.67;54.90;100176.84;4401627;32;19989;-86
2022/05/11 03:53:37;;;;;;;;;;;;;;;15.66;55.03;100169.84;4401830;32;19978;-83
2022/05/11 03:56:04;;;;;;;;;;;;;;;15.86;54.51;100169.00;4400555;32;19998;-87
2022/05/11 03:58:31;;;;;;;;;;;;;;;15.81;54.69;100177.72;4401250;32;20030;-79
2022/05/11 04:00:58;;;;;;;;;;;;;;;15.83;55.01;100166.44;4401858;32;19982;-84
2022/05/11 04:03:25;;;;;;;;;;;;;;;15.96;54.65;100168.16;4400713;32;20795;-80
2022/05/11 04:05:52;;;;;;;;;;;;;;;15.88;55.33;100170.75;4401050;32;20374;-84
2022/05/11 04:08:19;;;;;;;;;;;;;;;15.87;55.41;100176.84;4401690;32;19983;-80
2022/05/11 04:10:46;;;;;;;;;;;;;;;15.79;56.21;100176.88;4401299;32;20020;-84
2022/05/11 04:13:13;;;;;;;;;;;;;;;15.79;56.35;100176.88;4401016;32;19986;-81
2022/05/11 04:15:40;;;;;;;;;;;;;;;16.03;55.34;100177.72;4401098;32;20025;-83
2022/05/11 04:18:07;;;;;;;;;;;;;;;16.03;55.78;100180.34;4401435;32;20380;-82
2022/05/11 04:20:35;;;;;;;;;;;;;;;16.24;55.32;100175.09;4401540;32;20101;-78
2022/05/11 04:23:02;;;;;;;;;;;;;;;16.23;55.50;100181.16;4400884;32;20005;-78
2022/05/11 04:25:29;;;;;;;;;;;;;;;16.24;55.77;100180.31;4401439;32;19981;-81
2022/05/11 04:27:56;;;;;;;;;;;;;;;16.43;55.26;100180.25;4401893;32;19987;-79
2022/05/11 04:30:26;;;;;;;;;;;;;;;16.48;55.06;100184.59;4401645;32;19970;-86
2022/05/11 04:32:53;;;;;;;;;;;;;;;16.54;54.92;100183.72;4412637;32;19994;-86
2022/05/11 04:35:20;;;;;;;;;;;;;;;16.71;54.52;100181.91;4400740;32;19988;-87
2022/05/11 04:37:47;;;;;;;;;;;;;;;16.85;54.77;100179.31;4401261;32;19990;-81
2022/05/11 04:40:15;;;;;;;;;;;;;;;16.94;54.15;100178.38;4400401;32;19966;-77
2022/05/11 04:42:43;;;;;;;;;;;;;;;16.99;54.54;100186.22;4401142;32;20357;-77
2022/05/11 04:45:10;;;;;;;;;;;;;;;17.02;54.69;100181.84;4401208;32;20013;-79
2022/05/11 04:47:38;;;;;;;;;;;;;;;17.07;55.11;100180.09;4400705;32;20291;-79
2022/05/11 04:50:06;;;;;;;;;;;;;;;17.09;55.14;100177.44;4399800;32;20301;-81
2022/05/11 04:52:32;;;;;;;;;;;;;;;17.20;53.65;100180.88;4404747;32;19986;-77
2022/05/11 04:54:59;;;;;;;;;;;;;;;17.32;53.58;100179.91;4416528;32;19978;-82
2022/05/11 04:57:26;;;;;;;;;;;;;;;17.38;53.38;100179.87;4427004;32;19994;-79
2022/05/11 04:59:53;;;;;;;;;;;;;;;17.40;53.07;100173.78;4416241;32;20055;-78
2022/05/11 05:02:22;;;;;;;;;;;;;;;17.58;52.86;100178.03;4415707;32;19979;-78
2022/05/11 05:04:49;;;;;;;;;;;;;;;17.63;52.78;100178.84;4399907;32;19985;-80
2022/05/11 05:07:16;;;;;;;;;;;;;;;17.67;52.72;100188.41;4401653;32;20304;-81
2022/05/11 05:09:43;;;;;;;;;;;;;;;17.84;52.73;100184.84;4400958;32;20024;-80
2022/05/11 05:12:10;;;;;;;;;;;;;;;17.90;52.46;100190.03;4404364;32;19982;-83
2022/05/11 05:14:38;;;;;;;;;;;;;;;18.03;52.20;100185.56;4409014;32;20046;-80
2022/05/11 05:17:08;;;;;;;;;;;;;;;18.04;52.29;100190.78;4422846;32;20314;-79
2022/05/11 05:19:41;;;;;;;;;;;;;;;18.15;52.17;100189.81;4413935;32;19977;-79
2022/05/11 05:22:09;;;;;;;;;;;;;;;18.33;51.66;100185.25;4416803;32;19969;-79
2022/05/11 05:24:35;;;;;;;;;;;;;;;18.37;51.53;100188.72;4416324;32;20035;-77
2022/05/11 05:27:02;;;;;;;;;;;;;;;18.54;51.01;100184.19;4416302;32;19990;-78
2022/05/11 05:32:15;;;;;;;;;;;;;;;18.67;50.48;100184.03;4416054;32;20049;-79
2022/05/11 05:34:43;;;;;;;;;;;;;;;18.79;50.30;100184.78;4414983;32;20255;-79
2022/05/11 05:37:11;;;;;;;;;;;;;;;18.88;50.22;100183.78;4416426;32;19990;-80
2022/05/11 05:39:38;;;;;;;;;;;;;;;18.97;49.93;100188.94;4097884;32;10004214;-79
2022/05/11 05:42:05;;;;;;;;;;;;;;;19.06;49.96;100190.56;4400654;32;20032;-79
2022/05/11 05:44:32;;;;;;;;;;;;;;;19.15;49.77;100189.59;4410563;32;20007;-79
2022/05/11 05:47:03;;;;;;;;;;;;;;;19.22;49.59;100189.47;4416487;32;19978;-82
2022/05/11 05:49:31;;;;;;;;;;;;;;;19.28;49.55;100189.41;4403491;32;20382;-79
2022/05/11 05:52:01;;;;;;;;;;;;;;;19.43;49.34;100182.19;4396942;32;20322;-79
2022/05/11 05:54:31;;;;;;;;;;;;;;;19.50;49.08;100184.72;4404481;32;20394;-80
2022/05/11 05:56:58;;;;;;;;;;;;;;;19.53;49.07;100186.44;4399461;32;20340;-80
2022/05/11 05:59:25;;;;;;;;;;;;;;;19.67;48.53;100186.25;4393394;32;20008;-79
2022/05/11 06:01:52;;;;;;;;;;;;;;;19.62;49.08;100182.78;4402889;32;19995;-80
2022/05/11 06:04:19;;;;;;;;;;;;;;;19.61;48.78;100181.91;4384360;32;19986;-80
2022/05/11 06:06:46;;;;;;;;;;;;;;;19.57;48.53;100184.62;4383413;32;20053;-84
2022/05/11 06:09:13;;;;;;;;;;;;;;;19.93;47.37;100186.69;4393151;32;20051;-82
2022/05/11 06:11:41;;;;;;;;;;;;;;;20.08;46.90;100187.31;4401033;32;20045;-80
2022/05/11 06:14:08;;;;;;;;;;;;;;;20.24;45.90;100180.91;4400842;32;20042;-79
2022/05/11 06:16:35;;;;;;;;;;;;;;;20.22;46.17;100182.69;4399292;32;20331;-82
2022/05/11 06:19:04;;;;;;;;;;;;;;;20.30;46.44;100187.81;4400972;32;20316;-79
2022/05/11 06:21:31;;;;;;;;;;;;;;;20.55;45.94;100189.13;4399245;32;20283;-80
2022/05/11 06:23:58;;;;;;;;;;;;;;;20.76;44.98;100187.81;4400100;32;19997;-79
2022/05/11 06:26:25;;;;;;;;;;;;;;;20.86;47.15;100188.50;4400486;32;20027;-80
2022/05/11 06:29:12;;;;;;;;;;;;;;;21.23;46.63;100188.59;4391577;32;20022;-80
2022/05/11 06:31:39;;;;;;;;;;;;;;;21.59;45.02;100180.78;4398299;32;20370;-78
2022/05/11 06:34:06;;;;;;;;;;;;;;;22.04;44.69;100188.44;4399313;32;20012;-81
2022/05/11 06:36:33;;;;;;;;;;;;;;;22.62;41.66;100184.31;4398589;32;20320;-81
2022/05/11 06:39:00;;;;;;;;;;;;;;;23.17;40.70;100185.38;4393251;32;20041;-82
2022/05/11 06:41:27;;;;;;;;;;;;;;;23.31;39.36;100186.72;4401503;32;20000;-83
2022/05/11 06:43:54;;;;;;;;;;;;;;;23.61;39.38;100184.88;4399032;32;20381;-84
2022/05/11 06:46:22;;;;;;;;;;;;;;;24.02;37.56;100186.19;4398358;32;19986;-81
2022/05/11 06:48:49;;;;;;;;;;;;;;;24.38;38.78;100177.94;4399890;32;19993;-84
2022/05/11 06:51:16;;;;;;;;;;;;;;;24.89;35.45;100178.75;4398679;32;20342;-81
2022/05/11 06:59:20;;;;;;;;;;;;;;;25.42;33.90;100183.81;4400240;32;19986;-84
2022/05/11 07:01:55;;;;;;;;;;;;;;;25.15;35.37;100181.31;4399630;32;19979;-83
2022/05/11 07:04:23;;;;;;;;;;;;;;;25.42;35.41;100179.34;4400071;32;19979;-82
2022/05/11 07:06:54;;;;;;;;;;;;;;;25.65;37.40;100180.22;4399008;32;20053;-82
2022/05/11 07:09:21;;;;;;;;;;;;;;;26.18;35.61;100179.81;4397977;32;19975;-82
2022/05/11 07:14:36;;;;;;;;;;;;;;;26.40;34.95;100175.28;4399855;32;20728;-83
2022/05/11 07:17:04;;;;;;;;;;;;;;;26.58;34.36;100172.78;4413466;32;20096;-80
2022/05/11 07:19:30;;;;;;;;;;;;;;;27.19;32.89;100179.78;4415390;32;19977;-80
2022/05/11 07:21:58;;;;;;;;;;;;;;;27.15;31.59;100184.34;4415046;32;19995;-81
2022/05/11 07:24:25;;;;;;;;;;;;;;;27.27;31.27;100177.59;4410059;32;19978;-83
2022/05/11 07:26:54;;;;;;;;;;;;;;;27.23;32.87;100174.22;4412345;32;19986;-83
2022/05/11 07:29:22;;;;;;;;;;;;;;;27.31;30.53;100168.53;4407405;32;20428;-83
2022/05/11 07:31:49;;;;;;;;;;;;;;;27.48;31.15;100175.72;4405882;32;20016;-83
2022/05/11 07:34:16;;;;;;;;;;;;;;;27.46;31.04;100174.94;4411544;32;19982;-83
2022/05/11 07:36:43;;;;;;;;;;;;;;;27.71;29.00;100172.78;4407883;32;20032;-83
2022/05/11 07:39:10;;;;;;;;;;;;;;;27.83;30.88;100171.34;4406584;32;20349;-83
2022/05/11 07:41:37;;;;;;;;;;;;;;;28.08;30.45;100170.97;4406899;32;19985;-83
2022/05/11 07:44:04;;;;;;;;;;;;;;;28.54;28.32;100173.06;4412645;32;20042;-83
2022/05/11 07:46:34;;;;;;;;;;;;;;;28.27;28.14;100165.53;4408394;32;20067;-83
2022/05/11 07:49:02;;;;;;;;;;;;;;;28.98;27.15;100168.88;4405652;32;19982;-83
2022/05/11 07:51:29;;;;;;;;;;;;;;;28.39;28.10;100169.37;4410135;32;19978;-84
2022/05/11 07:53:56;;;;;;;;;;;;;;;28.45;28.39;100169.09;4423751;32;19997;-84
2022/05/11 08:01:56;;;;;;;;;;;;;;;29.08;28.26;100179.91;4408768;32;20013;-83
2022/05/11 08:04:23;;;;;;;;;;;;;;;28.51;31.23;100179.41;4412557;32;20027;-83
2022/05/11 08:06:50;;;;;;;;;;;;;;;28.62;29.86;100179.72;4422962;32;20008;-83
2022/05/11 08:09:19;;;;;;;;;;;;;;;28.82;28.48;100173.31;4409857;32;20128;-83
2022/05/11 08:11:47;;;;;;;;;;;;;;;29.12;26.86;100178.78;4406574;32;20336;-84
2022/05/11 08:14:14;;;;;;;;;;;;;;;28.95;27.09;100165.50;4411125;32;19978;-85
2022/05/11 08:16:41;;;;;;;;;;;;;;;29.43;26.21;100163.75;4411460;32;20003;-83
2022/05/11 08:19:08;;;;;;;;;;;;;;;29.18;26.74;100170.44;4407629;32;20387;-83
2022/05/11 08:21:36;;;;;;;;;;;;;;;28.89;28.92;100163.19;4416372;32;19970;-82
2022/05/11 08:24:03;;;;;;;;;;;;;;;29.15;28.31;100165.28;4416632;32;20057;-82
2022/05/11 08:26:30;;;;;;;;;;;;;;;28.15;30.24;100167.06;4414752;32;19978;-82
2022/05/11 08:28:57;;;;;;;;;;;;;;;28.51;31.35;100168.75;4400861;32;20000;-82
2022/05/11 08:34:09;;;;;;;;;;;;;;;28.76;26.47;100165.66;4402393;32;20332;-83
2022/05/11 08:36:37;;;;;;;;;;;;;;;29.04;24.66;100157.03;4401276;32;20019;-83
2022/05/11 08:39:04;;;;;;;;;;;;;;;29.31;26.00;100159.09;4401170;32;19987;-83
2022/05/11 08:41:33;;;;;;;;;;;;;;;29.31;25.20;100153.75;4409931;32;20008;-82
2022/05/11 08:44:17;;;;;;;;;;;;;;;30.02;24.74;100162.06;4393782;32;20409;-83
2022/05/11 08:47:06;;;;;;;;;;;;;;;29.88;27.39;100164.72;4406415;32;19989;-83
2022/05/11 08:49:35;;;;;;;;;;;;;;;30.43;23.90;100161.44;4384943;32;19992;-83
2022/05/11 08:52:04;;;;;;;;;;;;;;;29.22;29.26;100164.94;4400609;32;19985;-83
2022/05/11 08:54:45;;;;;;;;;;;;;;;29.89;26.60;100161.94;4399273;32;20377;-83
2022/05/11 08:57:17;;;;;;;;;;;;;;;30.17;24.74;100159.47;4394485;32;20028;-83
2022/05/11 08:59:44;;;;;;;;;;;;;;;30.28;23.85;100157.00;4406016;32;20461;-83
2022/05/11 09:02:24;;;;;;;;;;;;;;;30.56;25.43;100162.37;4403914;32;19971;-83
2022/05/11 09:04:53;;;;;;;;;;;;;;;30.20;25.51;100161.97;4400624;32;19978;-83
2022/05/11 09:07:20;;;;;;;;;;;;;;;30.19;27.63;100158.47;4405182;32;20004;-83
2022/05/11 09:09:47;;;;;;;;;;;;;;;30.26;24.87;100166.94;4399899;32;20057;-83
2022/05/11 09:12:15;;;;;;;;;;;;;;;29.98;22.99;100160.56;4401135;32;20866;-83
2022/05/11 09:14:52;;;;;;;;;;;;;;;30.31;22.56;100151.50;4411809;32;20013;-83
2022/05/11 09:17:24;;;;;;;;;;;;;;;30.42;23.93;100157.03;4399696;32;20425;-83
2022/05/11 09:20:01;;;;;;;;;;;;;;;30.71;22.33;100149.03;4397598;32;19997;-83
2022/05/11 09:22:29;;;;;;;;;;;;;;;31.07;21.63;100161.06;4410899;32;19982;-83
2022/05/11 09:24:57;;;;;;;;;;;;;;;30.21;26.48;100150.34;4401328;32;19999;-83
2022/05/11 09:27:27;;;;;;;;;;;;;;;30.19;27.53;100158.47;4397819;32;19990;-82
2022/05/11 09:29:59;;;;;;;;;;;;;;;30.71;23.85;100149.03;4402015;32;20023;-83
2022/05/11 09:32:33;;;;;;;;;;;;;;;30.88;22.12;100156.88;4401059;32;19982;-82
2022/05/11 09:35:15;;;;;;;;;;;;;;;30.85;22.63;100154.38;4400202;32;20477;-83
2022/05/11 09:37:42;;;;;;;;;;;;;;;31.45;20.87;100151.44;4398315;32;19990;-83
2022/05/11 09:40:11;;;;;;;;;;;;;;;30.78;24.65;100158.41;4401551;32;20008;-84
2022/05/11 09:42:48;;;;;;;;;;;;;;;31.12;22.89;100148.25;4074703;32;10004520;-82
2022/05/11 09:45:34;;;;;;;;;;;;;;;31.11;21.24;100150.09;4379874;32;19985;-81
2022/05/11 09:48:08;;;;;;;;;;;;;;;30.89;23.66;100147.91;4420647;32;19978;-81
2022/05/11 09:50:35;;;;;;;;;;;;;;;30.57;26.58;100160.59;4415895;32;19992;-82
2022/05/11 09:53:10;;;;;;;;;;;;;;;31.00;22.94;100153.44;4410762;32;20429;-82
2022/05/11 09:55:37;;;;;;;;;;;;;;;30.93;22.99;100152.09;4415002;32;20013;-81
2022/05/11 09:58:08;;;;;;;;;;;;;;;30.99;23.02;100159.75;4414329;32;20303;-82
2022/05/11 10:00:38;;;;;;;;;;;;;;;30.47;24.01;100144.28;4414712;32;19998;-81
2022/05/11 10:03:07;;;;;;;;;;;;;;;30.91;24.20;100147.81;4415797;32;19981;-81
2022/05/11 10:05:39;;;;;;;;;;;;;;;30.27;27.10;100144.63;4414704;32;19989;-81
2022/05/11 10:08:12;;;;;;;;;;;;;;;30.40;26.36;100142.91;4414751;32;19981;-82
2022/05/11 10:11:06;;;;;;;;;;;;;;;30.75;24.93;100139.88;4415537;32;19973;-82
2022/05/11 10:14:02;;;;;;;;;;;;;;;30.70;26.69;100147.34;4414331;32;19985;-81
2022/05/11 10:22:20;;;;;;;;;;;;;;;29.70;25.11;100150.62;4415800;32;20379;-81
2022/05/11 10:25:02;;;;;;;;;;;;;;;29.14;24.98;100133.41;4415771;32;20023;-82
2022/05/11 10:27:44;;;;;;;;;;;;;;;29.42;23.50;100138.03;4415765;32;19992;-82
2022/05/11 10:30:28;;;;;;;;;;;;;;;29.36;22.20;100135.72;4415516;32;19982;-82
2022/05/11 10:33:13;;;;;;;;;;;;;;;29.63;25.21;100128.78;4410763;32;20021;-83
2022/05/11 10:35:59;;;;;;;;;;;;;;;29.47;25.46;100138.59;4415706;32;20023;-82
2022/05/11 10:38:35;;;;;;;;;;;;;;;29.56;23.67;100132.75;4415306;32;19988;-82
2022/05/11 10:41:17;;;;;;;;;;;;;;;29.45;25.44;100129.81;4415252;32;20315;-82
2022/05/11 10:43:56;;;;;;;;;;;;;;;29.55;25.68;100125.69;4415959;32;19981;-82
2022/05/11 10:46:27;;;;;;;;;;;;;;;29.63;25.28;100123.44;4414987;32;19978;-82
2022/05/11 10:49:13;;;;;;;;;;;;;;;29.59;25.25;100121.91;4414931;32;20006;-82
2022/05/11 10:51:44;;;;;;;;;;;;;;;29.56;22.83;100116.72;4415164;32;19982;-81
2022/05/11 10:54:15;;;;;;;;;;;;;;;29.59;21.97;100116.56;4414474;32;19981;-82
2022/05/11 10:56:46;;;;;;;;;;;;;;;29.80;21.08;100118.94;4397307;32;20005;-82
2022/05/11 10:59:22;;;;;;;;;;;;;;;29.77;24.12;100120.00;4415403;32;19988;-82
2022/05/11 11:02:18;;;;;;;;;;;;;;;28.84;22.68;100122.59;4415085;32;20020;-82
2022/05/11 11:05:14;;;;;;;;;;;;;;;28.53;22.99;100116.28;4373577;32;19991;-82
2022/05/11 11:07:41;;;;;;;;;;;;;;;29.33;21.48;100115.41;4373743;32;20002;-82
2022/05/11 11:10:08;;;;;;;;;;;;;;;29.30;22.28;100109.38;4415228;32;19982;-80
2022/05/11 11:12:39;;;;;;;;;;;;;;;29.28;23.68;100116.59;4415054;32;19978;-81
2022/05/11 11:15:11;;;;;;;;;;;;;;;28.63;23.00;100112.16;4415144;32;20361;-81
2022/05/11 11:17:42;;;;;;;;;;;;;;;29.18;23.29;100111.78;4414311;32;20031;-82
2022/05/11 11:20:19;;;;;;;;;;;;;;;29.20;25.73;100115.25;4406930;32;20331;-80
2022/05/11 11:23:08;;;;;;;;;;;;;;;28.96;24.22;100113.91;4401429;32;19982;-80
2022/05/11 11:25:45;;;;;;;;;;;;;;;28.95;25.46;100104.22;4400060;32;19997;-79
2022/05/11 11:28:14;;;;;;;;;;;;;;;28.80;26.84;100099.72;4395082;32;20344;-80
2022/05/11 11:30:43;;;;;;;;;;;;;;;29.14;24.90;100099.59;4408315;32;19965;-79
2022/05/11 11:33:15;;;;;;;;;;;;;;;28.92;22.17;100093.72;4391407;32;20445;-80
2022/05/11 11:35:43;;;;;;;;;;;;;;;29.15;21.88;100090.63;4398238;32;19974;-82
2022/05/11 11:38:10;;;;;;;;;;;;;;;29.79;23.39;100090.53;4400209;32;19986;-82
2022/05/11 11:40:40;;;;;;;;;;;;;;;29.53;25.53;100092.91;4380847;32;19997;-82
2022/05/11 11:43:41;;;;;;;;;;;;;;;29.44;25.78;100080.09;4388702;32;20485;-82
2022/05/11 11:46:08;;;;;;;;;;;;;;;29.91;23.52;100089.81;4401072;32;19978;-82
2022/05/11 11:48:35;;;;;;;;;;;;;;;29.64;24.32;100077.16;4398843;32;19982;-82
2022/05/11 11:51:04;;;;;;;;;;;;;;;29.39;24.01;100066.19;4399518;32;19990;-82
2022/05/11 11:53:33;;;;;;;;;;;;;;;30.07;22.04;100069.22;4403998;32;20410;-82
2022/05/11 11:56:36;;;;;;;;;;;;;;;30.55;21.23;100064.47;4401201;32;20335;-81
2022/05/11 11:59:11;;;;;;;;;;;;;;;29.87;24.28;100061.59;4348232;32;20058;-81
2022/05/11 12:01:39;;;;;;;;;;;;;;;29.49;23.57;100062.03;4388827;32;19985;-81
2022/05/11 12:04:10;;;;;;;;;;;;;;;29.58;23.74;100058.81;4397655;32;20071;-81
2022/05/11 12:15:01;;;;;;;;;;;;;;;30.30;23.84;100045.62;4393176;32;20331;-82
2022/05/11 12:17:31;;;;;;;;;;;;;;;30.22;23.87;100045.25;4400369;32;19994;-81
2022/05/11 12:20:01;;;;;;;;;;;;;;;30.65;24.69;100042.53;4400342;32;19990;-81
2022/05/11 12:22:29;;;;;;;;;;;;;;;30.91;22.10;100044.41;4391832;32;20041;-80
2022/05/11 12:24:58;;;;;;;;;;;;;;;30.11;22.99;100038.72;4397269;32;19998;-80
2022/05/11 12:27:27;;;;;;;;;;;;;;;29.43;23.82;100046.38;4398915;32;20040;-80
2022/05/11 12:29:56;;;;;;;;;;;;;;;29.52;25.82;100040.50;4370803;32;866223;-82
2022/05/11 12:32:25;;;;;;;;;;;;;;;30.09;23.43;100034.44;4396857;32;20004;-81
2022/05/11 12:34:56;;;;;;;;;;;;;;;29.02;24.60;100040.78;4401178;32;20340;-82
2022/05/11 12:37:33;;;;;;;;;;;;;;;29.19;25.46;100033.50;4398330;32;20006;-83
2022/05/11 12:40:06;;;;;;;;;;;;;;;29.10;25.02;100034.06;4399443;32;20410;-81
2022/05/11 12:42:39;;;;;;;;;;;;;;;28.77;26.73;100027.94;4393790;32;19982;-83
2022/05/11 12:45:09;;;;;;;;;;;;;;;29.28;25.34;100031.28;4393416;32;19978;-81
2022/05/11 12:47:37;;;;;;;;;;;;;;;28.55;25.33;100021.16;4390038;32;20077;-82
2022/05/11 12:50:05;;;;;;;;;;;;;;;28.88;25.43;100020.22;4410278;32;20010;-82
2022/05/11 12:52:34;;;;;;;;;;;;;;;29.23;25.37;100017.34;4409018;32;19970;-82
2022/05/11 12:55:02;;;;;;;;;;;;;;;29.69;22.98;100020.00;4395658;32;20033;-81
2022/05/11 12:57:48;;;;;;;;;;;;;;;29.56;25.57;100014.50;4137491;32;10007786;-82
2022/05/11 13:00:18;;;;;;;;;;;;;;;29.58;25.83;100013.47;4405628;32;19978;-83
2022/05/11 13:02:45;;;;;;;;;;;;;;;30.02;22.70;100015.25;4408282;32;20019;-82
2022/05/11 13:05:14;;;;;;;;;;;;;;;29.75;23.36;100008.94;4419384;32;20036;-82
2022/05/11 13:07:44;;;;;;;;;;;;;;;29.43;23.98;100009.91;4418302;32;19985;-83
2022/05/11 13:10:17;;;;;;;;;;;;;;;29.58;25.56;100005.47;4407065;32;19986;-81
2022/05/11 13:12:45;;;;;;;;;;;;;;;29.86;23.82;100001.12;4417511;32;20016;-81
2022/05/11 13:15:12;;;;;;;;;;;;;;;29.99;21.74;100001.22;4418539;32;20042;-82
2022/05/11 13:17:41;;;;;;;;;;;;;;;30.01;21.71;100000.19;4405502;32;20046;-83
2022/05/11 13:20:08;;;;;;;;;;;;;;;30.12;22.09;99996.84;4414888;32;20022;-82
2022/05/11 13:22:37;;;;;;;;;;;;;;;30.24;23.36;99995.25;4404934;32;20169;-83
2022/05/11 13:25:05;;;;;;;;;;;;;;;30.26;23.95;99982.66;4419579;32;20005;-83
2022/05/11 13:27:34;;;;;;;;;;;;;;;30.36;23.54;99986.47;4399579;32;19982;-84
2022/05/11 13:30:11;;;;;;;;;;;;;;;30.35;25.44;99982.94;4405172;32;19998;-82
2022/05/11 13:32:41;;;;;;;;;;;;;;;30.58;23.13;99984.13;4398089;32;19974;-81